Terminal Aerodrome Forecast
Issued by NWS

Home | Current Version | Previous Version | Text Only | Print | Product List | Glossary On
Versions: 1 2 3 4 5 6 7 8 9 10 11 12 13 14 15 16 17 18 19 20
429
FTUS44 KCRP 231732
TAFALI
TAF
KALI 231732Z 2318/2418 17015G21KT P6SM SKC
     FM232300 15011KT P6SM SKC
     FM240800 20005KT 3SM BR FEW005
     FM241000 23004KT 1SM BR BKN004
      TEMPO 2411/2414 1/2SM FG OVC002
     FM241430 33011G16KT P6SM FEW015=

USA.gov is the U.S. government's official web portal to all federal, state and local government web resources and services.